createdAt,value
2023-12-27T00:01:32.931Z,5.37
2023-12-27T00:06:35.976Z,5.45
2023-12-27T00:11:37.657Z,5.45
2023-12-27T00:16:39.307Z,5.46
2023-12-27T00:21:42.200Z,5.43
2023-12-27T00:26:43.781Z,5.41
2023-12-27T00:31:45.348Z,5.37
2023-12-27T00:36:48.228Z,5.43
2023-12-27T00:41:49.833Z,5.45
2023-12-27T00:46:51.681Z,5.43
2023-12-27T00:51:54.675Z,5.48
2023-12-27T00:56:56.333Z,5.46
2023-12-27T01:01:57.941Z,5.51
2023-12-27T01:07:00.888Z,5.45
2023-12-27T01:12:02.632Z,5.40
2023-12-27T01:17:04.533Z,5.36
2023-12-27T01:22:07.445Z,5.38
2023-12-27T01:27:10.065Z,5.41
2023-12-27T01:32:11.684Z,5.39
2023-12-27T01:37:14.589Z,5.42
2023-12-27T01:42:16.319Z,5.45
2023-12-27T01:47:17.939Z,5.50
2023-12-27T01:52:21.027Z,5.54
2023-12-27T01:57:22.763Z,5.60
2023-12-27T02:02:24.954Z,5.58
2023-12-27T02:07:30.881Z,5.60
2023-12-27T02:12:33.180Z,5.61
2023-12-27T02:17:35.349Z,5.59
2023-12-27T02:22:39.998Z,5.65
2023-12-27T02:27:42.994Z,5.61
2023-12-27T02:32:45.820Z,5.66
2023-12-27T02:37:47.712Z,5.67
2023-12-27T02:42:50.892Z,5.48
2023-12-27T02:47:52.663Z,5.23
2023-12-27T02:52:54.333Z,4.98
2023-12-27T02:57:57.473Z,5.07
2023-12-27T03:02:59.108Z,5.05
2023-12-27T03:08:00.917Z,5.02
2023-12-27T03:13:04.031Z,4.95
2023-12-27T03:18:05.777Z,4.84
2023-12-27T03:23:07.474Z,4.73
2023-12-27T03:28:10.402Z,4.66
2023-12-27T03:33:12.216Z,4.66
2023-12-27T03:38:13.957Z,4.64
2023-12-27T03:43:16.995Z,4.62
2023-12-27T03:48:18.768Z,4.57
2023-12-27T03:53:20.434Z,4.56
2023-12-27T03:58:23.380Z,4.56
2023-12-27T04:03:25.015Z,4.55
2023-12-27T04:08:26.730Z,4.61
2023-12-27T04:13:29.600Z,4.65
2023-12-27T04:18:31.385Z,4.63
2023-12-27T04:23:33.099Z,4.64
2023-12-27T04:28:36.092Z,4.55
2023-12-27T04:33:37.722Z,4.55
2023-12-27T04:38:39.332Z,4.49
2023-12-27T04:43:42.242Z,4.49
2023-12-27T04:48:43.943Z,4.43
2023-12-27T04:53:45.663Z,4.35
2023-12-27T04:58:48.626Z,4.17
2023-12-27T05:03:50.236Z,4.15
2023-12-27T05:08:51.934Z,4.09
2023-12-27T05:13:54.876Z,4.04
2023-12-27T05:18:56.632Z,3.97
2023-12-27T05:23:58.395Z,3.98
2023-12-27T05:29:01.342Z,3.87
2023-12-27T05:34:03.073Z,3.90
2023-12-27T05:39:04.939Z,3.75
2023-12-27T05:44:07.882Z,3.66
2023-12-27T05:49:09.554Z,3.68
2023-12-27T05:54:11.206Z,3.60
2023-12-27T05:59:14.164Z,3.51
2023-12-27T06:04:15.812Z,3.41
2023-12-27T06:09:17.463Z,3.35
2023-12-27T06:14:21.473Z,3.46
2023-12-27T06:19:23.198Z,3.36
2023-12-27T06:24:25.260Z,3.34
2023-12-27T06:29:28.190Z,3.26
2023-12-27T06:34:32.995Z,3.22
2023-12-27T06:39:34.743Z,3.27
2023-12-27T06:44:37.889Z,3.26
2023-12-27T06:49:39.698Z,3.26
2023-12-27T06:54:41.399Z,3.20
2023-12-27T06:59:44.431Z,3.16
2023-12-27T07:04:46.065Z,3.16
2023-12-27T07:09:47.817Z,3.11
2023-12-27T07:14:50.873Z,3.12
2023-12-27T07:19:52.561Z,3.18
2023-12-27T07:24:54.102Z,3.22
2023-12-27T07:29:57.241Z,3.20
2023-12-27T07:34:58.923Z,3.25
2023-12-27T07:40:00.677Z,3.21
2023-12-27T07:45:05.065Z,3.25
2023-12-27T07:50:07.715Z,3.27
2023-12-27T07:55:09.592Z,3.43
2023-12-27T08:00:14.042Z,3.48
2023-12-27T08:05:15.704Z,3.60
2023-12-27T08:10:17.421Z,3.59
2023-12-27T08:15:20.356Z,3.68
2023-12-27T08:20:25.055Z,3.72
2023-12-27T08:25:27.106Z,3.89
2023-12-27T08:30:30.110Z,4.11
2023-12-27T08:35:31.788Z,4.12
2023-12-27T08:40:33.459Z,4.14
2023-12-27T08:45:36.455Z,4.09
2023-12-27T08:50:38.022Z,4.17
2023-12-27T08:55:39.589Z,4.49
2023-12-27T09:00:42.656Z,4.53
2023-12-27T09:05:44.316Z,4.74
2023-12-27T09:10:45.935Z,4.99
2023-12-27T09:15:49.049Z,4.94
2023-12-27T09:20:50.622Z,4.71
2023-12-27T09:25:52.230Z,4.59
2023-12-27T09:30:55.315Z,4.78
2023-12-27T09:35:57.067Z,4.88
2023-12-27T09:40:58.720Z,4.98
2023-12-27T09:46:04.094Z,5.03
2023-12-27T09:51:06.097Z,4.99
2023-12-27T09:56:08.335Z,5.21
2023-12-27T10:01:11.711Z,5.21
2023-12-27T10:06:32.143Z,5.23
2023-12-27T10:11:35.142Z,5.17
2023-12-27T10:16:38.101Z,5.34
2023-12-27T10:21:41.573Z,5.44
2023-12-27T10:26:43.275Z,5.23
2023-12-27T10:31:48.232Z,5.49
2023-12-27T10:36:51.085Z,5.50
2023-12-27T10:41:53.331Z,5.71
2023-12-27T10:46:57.928Z,5.68
2023-12-27T10:52:00.932Z,5.91
2023-12-27T10:57:04.894Z,6.03
2023-12-27T11:02:09.325Z,6.15
2023-12-27T11:07:12.543Z,6.19
2023-12-27T11:12:18.571Z,6.26
2023-12-27T11:17:25.437Z,6.32
2023-12-27T11:22:27.114Z,6.42
2023-12-27T11:27:31.129Z,6.47
2023-12-27T11:32:36.369Z,6.51
2023-12-27T11:37:40.738Z,6.63
2023-12-27T11:42:42.363Z,6.68
2023-12-27T11:47:45.421Z,6.98
2023-12-27T11:52:53.324Z,7.11
2023-12-27T11:58:01.283Z,7.05
2023-12-27T12:03:15.161Z,7.12
2023-12-27T12:08:26.413Z,7.16
2023-12-27T12:13:28.073Z,7.34
2023-12-27T12:18:33.659Z,7.31
2023-12-27T12:23:35.513Z,7.44
2023-12-27T12:28:37.046Z,7.54
2023-12-27T12:33:39.984Z,7.60
2023-12-27T12:38:41.699Z,7.45
2023-12-27T12:43:43.350Z,7.58
2023-12-27T12:48:46.613Z,7.52
2023-12-27T12:53:48.456Z,7.57
2023-12-27T12:58:50.234Z,7.56
2023-12-27T13:03:53.122Z,7.55
2023-12-27T13:08:54.755Z,7.63
2023-12-27T13:13:56.289Z,7.66
2023-12-27T13:18:59.415Z,7.69
2023-12-27T13:24:01.120Z,7.65
2023-12-27T13:29:02.654Z,7.63
2023-12-27T13:34:05.643Z,7.63
2023-12-27T13:39:08.240Z,7.65
2023-12-27T13:44:09.899Z,7.55
2023-12-27T13:49:12.959Z,7.56
2023-12-27T13:54:24.324Z,7.45
2023-12-27T13:59:30.518Z,7.45
2023-12-27T14:04:33.574Z,7.35
2023-12-27T14:09:35.464Z,7.33
2023-12-27T14:14:37.055Z,7.21
2023-12-27T14:19:40.065Z,7.13
2023-12-27T14:24:41.677Z,7.02
2023-12-27T14:29:43.277Z,6.92
2023-12-27T14:34:46.216Z,6.80
2023-12-27T14:39:47.968Z,6.69
2023-12-27T14:44:49.680Z,6.67
2023-12-27T14:49:52.626Z,6.54
2023-12-27T14:54:54.251Z,6.51
2023-12-27T14:59:55.797Z,6.41
2023-12-27T15:04:58.799Z,6.35
2023-12-27T15:10:00.805Z,6.32
2023-12-27T15:15:03.984Z,6.32
2023-12-27T15:20:09.355Z,6.30
2023-12-27T15:25:11.378Z,6.18
2023-12-27T15:30:13.676Z,6.11
2023-12-27T15:35:16.749Z,6.07
2023-12-27T15:40:18.327Z,6.02
2023-12-27T15:45:19.873Z,5.97
2023-12-27T15:50:22.740Z,5.95
2023-12-27T15:55:24.248Z,5.91
2023-12-27T16:00:25.875Z,5.85
2023-12-27T16:05:28.955Z,5.82
2023-12-27T16:10:30.515Z,5.72
2023-12-27T16:15:33.947Z,5.71
2023-12-27T16:20:40.319Z,5.72
2023-12-27T16:25:41.956Z,5.67
2023-12-27T16:30:43.670Z,5.65
2023-12-27T16:35:46.498Z,5.60
2023-12-27T16:40:48.075Z,5.60
2023-12-27T16:45:49.807Z,5.55
2023-12-27T16:50:52.960Z,5.50
2023-12-27T16:55:54.639Z,5.42
2023-12-27T17:00:56.211Z,5.41
2023-12-27T17:06:00.112Z,5.33
2023-12-27T17:11:01.704Z,5.33
2023-12-27T17:16:03.467Z,5.34
2023-12-27T17:21:06.501Z,5.33
2023-12-27T17:26:08.056Z,5.34
2023-12-27T17:31:09.667Z,5.33
2023-12-27T17:36:12.671Z,5.30
2023-12-27T17:41:15.201Z,5.30
2023-12-27T17:46:16.950Z,5.23
2023-12-27T17:51:19.846Z,5.20
2023-12-27T17:56:21.451Z,5.21
2023-12-27T18:01:22.949Z,5.13
2023-12-27T18:06:25.999Z,5.06
2023-12-27T18:11:27.702Z,5.00
2023-12-27T18:16:29.218Z,4.96
2023-12-27T18:21:32.135Z,4.94
2023-12-27T18:26:39.445Z,4.93
2023-12-27T18:31:44.012Z,4.92
2023-12-27T18:36:47.110Z,4.90
2023-12-27T18:41:48.710Z,4.93
2023-12-27T18:46:50.317Z,4.97
2023-12-27T18:51:53.390Z,4.94
2023-12-27T18:56:54.945Z,4.90
2023-12-27T19:01:56.459Z,4.82
2023-12-27T19:06:59.445Z,4.79
2023-12-27T19:12:01.038Z,4.70
2023-12-27T19:17:02.537Z,4.59
2023-12-27T19:22:05.484Z,4.47
2023-12-27T19:27:07.146Z,4.41
2023-12-27T19:32:08.643Z,4.38
2023-12-27T19:37:12.589Z,4.40
2023-12-27T19:42:14.154Z,4.44
2023-12-27T19:47:15.699Z,4.44
2023-12-27T19:52:18.633Z,4.45
2023-12-27T19:57:20.193Z,4.42
2023-12-27T20:02:21.792Z,4.39
2023-12-27T20:07:25.683Z,4.25
2023-12-27T20:12:27.437Z,4.16
2023-12-27T20:17:29.014Z,4.08
2023-12-27T20:22:31.948Z,3.97
2023-12-27T20:27:33.586Z,3.81
2023-12-27T20:32:35.749Z,3.75
2023-12-27T20:37:39.727Z,3.68
2023-12-27T20:42:41.412Z,3.64
2023-12-27T20:47:43.102Z,3.64
2023-12-27T20:52:46.103Z,3.71
2023-12-27T20:57:47.932Z,3.73
2023-12-27T21:02:49.557Z,3.78
2023-12-27T21:07:52.376Z,3.76
2023-12-27T21:12:53.937Z,3.79
2023-12-27T21:17:55.571Z,3.76
2023-12-27T21:22:58.599Z,3.73
2023-12-27T21:28:00.333Z,3.89
2023-12-27T21:33:02.238Z,4.03
2023-12-27T21:38:05.582Z,4.14
2023-12-27T21:43:07.129Z,4.24
2023-12-27T21:48:08.886Z,4.29
2023-12-27T21:53:14.778Z,4.27
2023-12-27T21:58:16.357Z,4.21
2023-12-27T22:03:17.917Z,4.13
2023-12-27T22:08:20.988Z,4.00
2023-12-27T22:13:22.686Z,3.92
2023-12-27T22:18:24.383Z,3.79
2023-12-27T22:23:28.902Z,3.67
2023-12-27T22:28:30.492Z,3.59
2023-12-27T22:33:32.196Z,3.35
2023-12-27T22:38:35.810Z,3.20
2023-12-27T22:43:37.447Z,3.14
2023-12-27T22:48:39.146Z,3.15
2023-12-27T22:53:42.265Z,3.17
2023-12-27T22:58:43.912Z,3.21
2023-12-27T23:03:45.512Z,3.22
2023-12-27T23:08:48.519Z,3.26
2023-12-27T23:13:50.134Z,3.27
2023-12-27T23:18:52.002Z,3.31
2023-12-27T23:23:54.976Z,3.29
2023-12-27T23:28:56.556Z,3.15
2023-12-27T23:33:58.272Z,3.11
2023-12-27T23:39:01.406Z,3.08
2023-12-27T23:44:03.999Z,3.08
2023-12-27T23:49:05.697Z,2.97
2023-12-27T23:54:08.962Z,2.97
2023-12-27T23:59:10.599Z,2.92
